Main page
METAR-TAF:

METAR-TAF

Airports :

Alicante, Spain

Alicante–Elche Airport

latitude: 38-17N, longitude: 000-33W, elevation: 43 m

Current weather observation

The report was made 39 minutes ago, at 01:30 UTC
Wind 4 kt from the North
Temperature 20°C
Humidity 49%
Pressure 1016 hPa
Visibility 10 km or more
no clouds below 1500 m and no cumulonimbus

METAR: LEAL 290130Z 36004KT CAVOK 20/09 Q1016 NOSIG

Time: 04:09 (02:09 UTC)

Forecast

The report was made 3 hours and 9 minutes ago, at 23:00 UTC
Forecast valid from 29 at 00 UTC to 29 at 24 UTC
Wind 5 kt from the North/Northwest
Visibility 10 km or more
Few clouds at a height of 4000 ft
Becoming
from 29 at 08 UTC to 29 at 10 UTC
Wind 10 kt from the East
Probability 30% :
Temporary
from 29 at 08 UTC to 29 at 12 UTC
Wind 10 kt from the South
Becoming
from 29 at 18 UTC to 29 at 20 UTC
Wind 4 kt from variable directions

TAF: LEAL 282300Z 2900/2924 34005KT 9999 FEW040 TX26/2912Z TN17/2906Z BECMG 2908/2910 09010KT PROB30 TEMPO 2908/2912 18010KT BECMG 2918/2920 VRB04KT

Weather observations and forecasts of more than 4000 airports (METAR and TAF reports).

The available stations are represented by yellow and red dots on the map.

Hover mouse over dot to see the name of the station.

Then click to see weather observations and forecasts.

To change the map : click on the green buttons with a black cross to zoom in, on the green button with a dash to zoom out, or on the green arrows for adjacent maps.


METAR-TAF: